Sankuniki — JD2465 — position and weather

sailwx.info

Track history (hours):
 
Tides and Currents Weather Stations Pressure Air Temp Water Temp Dewpoint Dewpoint Depression Visibility Wind Speed Wind Dir Waves Ship Positions

Sankuniki

Last reported at 2015-Jul-31 22:33 UTC. Time now 2015-Jul-31 23:30 UTC.
Position N 34°03' E 135°03'.

Length 71 m; draft 4.3 m.

Type: Cargo ship. MMSI: 431000269.

Date/timePositionNaut miles runAvg speedWind from/ knotsBaromVisibWave heightAir tempDewpointWater temp
2015-Jul-31 22:33N 34°03' E 135°03'1111.1
2015-Jul-31 21:33N 34°14' E 135°07'0 0.4
2015-Jul-31 20:33N 34°15' E 135°07'0 0.0
2015-Jul-31 19:33N 34°15' E 135°07'0 0.0
2015-Jul-31 18:33N 34°15' E 135°07'0 0.0
2015-Jul-31 17:33N 34°15' E 135°07'0 0.0
2015-Jul-31 16:33N 34°15' E 135°07'0 0.0
2015-Jul-31 15:33N 34°15' E 135°07'0 0.0
2015-Jul-31 14:33N 34°15' E 135°07'0 0.0
2015-Jul-31 13:33N 34°15' E 135°07'0 0.0
2015-Jul-31 12:33N 34°15' E 135°07'0 0.0
2015-Jul-31 11:33N 34°15' E 135°07'0 0.0
2015-Jul-31 10:33N 34°15' E 135°07'0 0.0
2015-Jul-31 09:33N 34°15' E 135°07'1 1.1
2015-Jul-31 08:33N 34°15' E 135°06'0 0.0
2015-Jul-31 07:33N 34°15' E 135°06'0 0.1
2015-Jul-31 06:25N 34°15' E 135°06'0 0.1
2015-Jul-31 05:33N 34°15' E 135°06'0 0.0
2015-Jul-31 04:33N 34°15' E 135°06'0 0.0
2015-Jul-31 03:33N 34°15' E 135°06'0 0.0
2015-Jul-31 02:33N 34°15' E 135°06'0 0.0
2015-Jul-31 01:33N 34°15' E 135°06'0 0.0
2015-Jul-31 00:33N 34°15' E 135°06'0 0.0
2015-Jul-30 23:33N 34°15' E 135°06'0 0.1
2015-Jul-30 22:33N 34°15' E 135°06'0 0.0
2015-Jul-30 21:33N 34°15' E 135°06'0 0.0
2015-Jul-30 20:33N 34°15' E 135°06'0 0.1
2015-Jul-30 19:34N 34°15' E 135°06'0 0.0
2015-Jul-30 18:33N 34°15' E 135°06'0 0.0
2015-Jul-30 17:33N 34°15' E 135°06'0 0.1
2015-Jul-30 16:33N 34°15' E 135°06'0 0.0
2015-Jul-30 15:33N 34°15' E 135°06'0 0.1
2015-Jul-30 14:33N 34°15' E 135°06'0 0.0
2015-Jul-30 13:32N 34°15' E 135°06'0 0.0
2015-Jul-30 12:33N 34°15' E 135°06'0 0.1
2015-Jul-30 11:33N 34°15' E 135°06'0 0.0
2015-Jul-30 10:33N 34°15' E 135°06'0 0.0
2015-Jul-30 09:33N 34°15' E 135°06'0 0.1
2015-Jul-30 08:33N 34°15' E 135°06'0 0.1
2015-Jul-30 07:33N 34°15' E 135°06'0 0.1
2015-Jul-30 06:33N 34°15' E 135°06'  
2015-Jul-25 07:15N 35°01' E 139°29'710.4
2015-Jul-25 06:33N 35°05' E 139°37'1111.1
2015-Jul-25 05:33N 35°13' E 139°46'1111.2
2015-Jul-25 04:33N 35°24' E 139°43'1110.9
2015-Jul-25 03:33N 35°29' E 139°55'5 4.6
2015-Jul-25 02:33N 35°28' E 140°00'0 0.0
2015-Jul-25 01:33N 35°28' E 140°00'0 0.0
2015-Jul-25 00:33N 35°28' E 140°00'0 0.0
2015-Jul-24 23:33N 35°28' E 140°00'2 1.7
2015-Jul-24 22:32N 35°29' E 139°58'0 0.0
2015-Jul-24 21:33N 35°29' E 139°58'0 0.0
2015-Jul-24 20:33N 35°29' E 139°58'0 0.0
2015-Jul-24 19:33N 35°29' E 139°58'0 0.0
2015-Jul-24 18:33N 35°29' E 139°58'0 0.0
2015-Jul-24 17:33N 35°29' E 139°58'0 0.0
2015-Jul-24 16:33N 35°29' E 139°58'0 0.0
2015-Jul-24 15:33N 35°29' E 139°58'0 0.0
2015-Jul-24 14:33N 35°29' E 139°58'0 0.0
2015-Jul-24 13:33N 35°29' E 139°58'0 0.0
2015-Jul-24 12:32N 35°29' E 139°58'0 0.0
2015-Jul-24 11:33N 35°29' E 139°58'0 0.0
2015-Jul-24 10:33N 35°29' E 139°58'5 5.2
2015-Jul-24 09:33N 35°28' E 139°52'1212.0
2015-Jul-24 08:33N 35°18' E 139°45'1211.8
2015-Jul-24 07:33N 35°06' E 139°44'240 7.3
2015-Jul-22 22:33N 34°04' E 135°03'1110.8
2015-Jul-22 21:33N 34°14' E 135°05'2 1.6
2015-Jul-22 20:33N 34°15' E 135°07'0 0.0
2015-Jul-22 19:33N 34°15' E 135°07'0 0.0
2015-Jul-22 18:33N 34°15' E 135°07'0 0.0
2015-Jul-22 17:33N 34°15' E 135°07'0 0.0
2015-Jul-22 16:33N 34°15' E 135°07'0 0.0
2015-Jul-22 15:33N 34°15' E 135°07'0 0.0
2015-Jul-22 14:33N 34°15' E 135°07'0 0.0
2015-Jul-22 13:34N 34°15' E 135°07'0 0.0
2015-Jul-22 12:33N 34°15' E 135°07'0 0.0
2015-Jul-22 11:33N 34°15' E 135°07'0 0.0
2015-Jul-22 10:34N 34°15' E 135°07'0 0.0
2015-Jul-22 09:33N 34°15' E 135°07'0 0.0
2015-Jul-22 08:33N 34°15' E 135°07'0 0.5
2015-Jul-22 07:33N 34°14' E 135°06'  
Track history (hours):
 
Tides and Currents Weather Stations Pressure Air Temp Water Temp Dewpoint Dewpoint Depression Visibility Wind Speed Wind Dir Waves Ship Positions

Sankuniki

Last reported at 2015-Jul-31 22:33 UTC. Time now 2015-Jul-31 23:30 UTC.
Position N 34°03' E 135°03'.

Length 71 m; draft 4.3 m.

Type: Cargo ship. MMSI: 431000269.

Date/timePositionNaut miles runAvg speedWind from/ knotsBaromVisibWave heightAir tempDewpointWater temp
2015-Jul-31 22:33N 34°03' E 135°03'1111.1
2015-Jul-31 21:33N 34°14' E 135°07'0 0.4
2015-Jul-31 20:33N 34°15' E 135°07'0 0.0
2015-Jul-31 19:33N 34°15' E 135°07'0 0.0
2015-Jul-31 18:33N 34°15' E 135°07'0 0.0
2015-Jul-31 17:33N 34°15' E 135°07'0 0.0
2015-Jul-31 16:33N 34°15' E 135°07'0 0.0
2015-Jul-31 15:33N 34°15' E 135°07'0 0.0
2015-Jul-31 14:33N 34°15' E 135°07'0 0.0
2015-Jul-31 13:33N 34°15' E 135°07'0 0.0
2015-Jul-31 12:33N 34°15' E 135°07'0 0.0
2015-Jul-31 11:33N 34°15' E 135°07'0 0.0
2015-Jul-31 10:33N 34°15' E 135°07'0 0.0
2015-Jul-31 09:33N 34°15' E 135°07'1 1.1
2015-Jul-31 08:33N 34°15' E 135°06'0 0.0
2015-Jul-31 07:33N 34°15' E 135°06'0 0.1
2015-Jul-31 06:25N 34°15' E 135°06'0 0.1
2015-Jul-31 05:33N 34°15' E 135°06'0 0.0
2015-Jul-31 04:33N 34°15' E 135°06'0 0.0
2015-Jul-31 03:33N 34°15' E 135°06'0 0.0
2015-Jul-31 02:33N 34°15' E 135°06'0 0.0
2015-Jul-31 01:33N 34°15' E 135°06'0 0.0
2015-Jul-31 00:33N 34°15' E 135°06'0 0.0
2015-Jul-30 23:33N 34°15' E 135°06'0 0.1
2015-Jul-30 22:33N 34°15' E 135°06'0 0.0
2015-Jul-30 21:33N 34°15' E 135°06'0 0.0
2015-Jul-30 20:33N 34°15' E 135°06'0 0.1
2015-Jul-30 19:34N 34°15' E 135°06'0 0.0
2015-Jul-30 18:33N 34°15' E 135°06'0 0.0
2015-Jul-30 17:33N 34°15' E 135°06'0 0.1
2015-Jul-30 16:33N 34°15' E 135°06'0 0.0
2015-Jul-30 15:33N 34°15' E 135°06'0 0.1
2015-Jul-30 14:33N 34°15' E 135°06'0 0.0
2015-Jul-30 13:32N 34°15' E 135°06'0 0.0
2015-Jul-30 12:33N 34°15' E 135°06'0 0.1
2015-Jul-30 11:33N 34°15' E 135°06'0 0.0
2015-Jul-30 10:33N 34°15' E 135°06'0 0.0
2015-Jul-30 09:33N 34°15' E 135°06'0 0.1
2015-Jul-30 08:33N 34°15' E 135°06'0 0.1
2015-Jul-30 07:33N 34°15' E 135°06'0 0.1
2015-Jul-30 06:33N 34°15' E 135°06'  
2015-Jul-25 07:15N 35°01' E 139°29'710.4
2015-Jul-25 06:33N 35°05' E 139°37'1111.1
2015-Jul-25 05:33N 35°13' E 139°46'1111.2
2015-Jul-25 04:33N 35°24' E 139°43'1110.9
2015-Jul-25 03:33N 35°29' E 139°55'5 4.6
2015-Jul-25 02:33N 35°28' E 140°00'0 0.0
2015-Jul-25 01:33N 35°28' E 140°00'0 0.0
2015-Jul-25 00:33N 35°28' E 140°00'0 0.0
2015-Jul-24 23:33N 35°28' E 140°00'2 1.7
2015-Jul-24 22:32N 35°29' E 139°58'0 0.0
2015-Jul-24 21:33N 35°29' E 139°58'0 0.0
2015-Jul-24 20:33N 35°29' E 139°58'0 0.0
2015-Jul-24 19:33N 35°29' E 139°58'0 0.0
2015-Jul-24 18:33N 35°29' E 139°58'0 0.0
2015-Jul-24 17:33N 35°29' E 139°58'0 0.0
2015-Jul-24 16:33N 35°29' E 139°58'0 0.0
2015-Jul-24 15:33N 35°29' E 139°58'0 0.0
2015-Jul-24 14:33N 35°29' E 139°58'0 0.0
2015-Jul-24 13:33N 35°29' E 139°58'0 0.0
2015-Jul-24 12:32N 35°29' E 139°58'0 0.0
2015-Jul-24 11:33N 35°29' E 139°58'0 0.0
2015-Jul-24 10:33N 35°29' E 139°58'5 5.2
2015-Jul-24 09:33N 35°28' E 139°52'1212.0
2015-Jul-24 08:33N 35°18' E 139°45'1211.8
2015-Jul-24 07:33N 35°06' E 139°44'240 7.3
2015-Jul-22 22:33N 34°04' E 135°03'1110.8
2015-Jul-22 21:33N 34°14' E 135°05'2 1.6
2015-Jul-22 20:33N 34°15' E 135°07'0 0.0
2015-Jul-22 19:33N 34°15' E 135°07'0 0.0
2015-Jul-22 18:33N 34°15' E 135°07'0 0.0
2015-Jul-22 17:33N 34°15' E 135°07'0 0.0
2015-Jul-22 16:33N 34°15' E 135°07'0 0.0
2015-Jul-22 15:33N 34°15' E 135°07'0 0.0
2015-Jul-22 14:33N 34°15' E 135°07'0 0.0
2015-Jul-22 13:34N 34°15' E 135°07'0 0.0
2015-Jul-22 12:33N 34°15' E 135°07'0 0.0
2015-Jul-22 11:33N 34°15' E 135°07'0 0.0
2015-Jul-22 10:34N 34°15' E 135°07'0 0.0
2015-Jul-22 09:33N 34°15' E 135°07'0 0.0
2015-Jul-22 08:33N 34°15' E 135°07'0 0.5
2015-Jul-22 07:33N 34°14' E 135°06'  

Dump ship's entire track history